sensor_id;sensor_type;location;lat;lon;timestamp;P1;durP1;ratioP1;P2;durP2;ratioP2
8353;SDS011;4656;48.090;11.498;2023-05-10T00:01:20;2.67;;;1.80;;
8353;SDS011;4656;48.090;11.498;2023-05-10T00:03:22;2.60;;;1.90;;
8353;SDS011;4656;48.090;11.498;2023-05-10T00:05:24;1.85;;;1.70;;
8353;SDS011;4656;48.090;11.498;2023-05-10T00:07:26;3.33;;;1.92;;
8353;SDS011;4656;48.090;11.498;2023-05-10T00:09:28;2.05;;;1.85;;
8353;SDS011;4656;48.090;11.498;2023-05-10T00:11:30;1.92;;;1.73;;
8353;SDS011;4656;48.090;11.498;2023-05-10T00:13:34;2.47;;;1.80;;
8353;SDS011;4656;48.090;11.498;2023-05-10T00:15:36;2.53;;;1.70;;
8353;SDS011;4656;48.090;11.498;2023-05-10T00:17:38;2.30;;;1.73;;
8353;SDS011;4656;48.090;11.498;2023-05-10T00:19:40;2.00;;;1.80;;
8353;SDS011;4656;48.090;11.498;2023-05-10T00:21:42;2.90;;;1.80;;
8353;SDS011;4656;48.090;11.498;2023-05-10T00:23:44;1.50;;;1.40;;
8353;SDS011;4656;48.090;11.498;2023-05-10T00:25:50;1.95;;;1.40;;
8353;SDS011;4656;48.090;11.498;2023-05-10T00:27:52;2.10;;;1.70;;
8353;SDS011;4656;48.090;11.498;2023-05-10T00:29:56;2.17;;;1.33;;
8353;SDS011;4656;48.090;11.498;2023-05-10T00:31:58;2.10;;;1.50;;
8353;SDS011;4656;48.090;11.498;2023-05-10T00:34:00;2.80;;;1.30;;
8353;SDS011;4656;48.090;11.498;2023-05-10T00:36:03;1.40;;;1.30;;
8353;SDS011;4656;48.090;11.498;2023-05-10T00:38:10;1.88;;;1.42;;
8353;SDS011;4656;48.090;11.498;2023-05-10T00:40:12;1.50;;;1.40;;
8353;SDS011;4656;48.090;11.498;2023-05-10T00:42:14;1.30;;;1.20;;
8353;SDS011;4656;48.090;11.498;2023-05-10T00:44:17;1.55;;;1.40;;
8353;SDS011;4656;48.090;11.498;2023-05-10T00:46:20;1.83;;;1.40;;
8353;SDS011;4656;48.090;11.498;2023-05-10T00:48:23;1.65;;;1.30;;
8353;SDS011;4656;48.090;11.498;2023-05-10T00:50:25;2.55;;;1.42;;
8353;SDS011;4656;48.090;11.498;2023-05-10T00:52:27;2.30;;;1.50;;
8353;SDS011;4656;48.090;11.498;2023-05-10T00:54:29;3.35;;;1.58;;
8353;SDS011;4656;48.090;11.498;2023-05-10T00:56:32;2.60;;;1.50;;
8353;SDS011;4656;48.090;11.498;2023-05-10T00:58:34;1.58;;;1.48;;
8353;SDS011;4656;48.090;11.498;2023-05-10T01:00:36;1.40;;;1.30;;
8353;SDS011;4656;48.090;11.498;2023-05-10T01:02:41;1.30;;;1.20;;
8353;SDS011;4656;48.090;11.498;2023-05-10T01:04:43;1.38;;;1.27;;
8353;SDS011;4656;48.090;11.498;2023-05-10T01:06:46;1.13;;;1.10;;
8353;SDS011;4656;48.090;11.498;2023-05-10T01:08:48;1.30;;;1.20;;
8353;SDS011;4656;48.090;11.498;2023-05-10T01:10:50;2.13;;;1.33;;
8353;SDS011;4656;48.090;11.498;2023-05-10T01:12:53;1.40;;;1.30;;
8353;SDS011;4656;48.090;11.498;2023-05-10T01:14:55;1.20;;;1.13;;
8353;SDS011;4656;48.090;11.498;2023-05-10T01:16:58;2.22;;;1.27;;
8353;SDS011;4656;48.090;11.498;2023-05-10T01:19:04;3.78;;;1.38;;
8353;SDS011;4656;48.090;11.498;2023-05-10T01:21:12;1.90;;;1.30;;
8353;SDS011;4656;48.090;11.498;2023-05-10T01:23:23;2.15;;;1.05;;
8353;SDS011;4656;48.090;11.498;2023-05-10T01:25:39;2.67;;;1.25;;
8353;SDS011;4656;48.090;11.498;2023-05-10T01:30:18;1.13;;;1.02;;
8353;SDS011;4656;48.090;11.498;2023-05-10T01:32:28;1.30;;;1.20;;
8353;SDS011;4656;48.090;11.498;2023-05-10T01:34:34;3.05;;;1.30;;
8353;SDS011;4656;48.090;11.498;2023-05-10T01:36:39;2.50;;;1.10;;
8353;SDS011;4656;48.090;11.498;2023-05-10T01:38:42;1.50;;;1.15;;
8353;SDS011;4656;48.090;11.498;2023-05-10T01:40:48;1.50;;;1.00;;
8353;SDS011;4656;48.090;11.498;2023-05-10T01:42:54;1.17;;;1.08;;
8353;SDS011;4656;48.090;11.498;2023-05-10T01:44:58;1.20;;;1.08;;
8353;SDS011;4656;48.090;11.498;2023-05-10T01:47:04;2.50;;;1.20;;
8353;SDS011;4656;48.090;11.498;2023-05-10T01:49:09;2.60;;;1.10;;
8353;SDS011;4656;48.090;11.498;2023-05-10T01:51:11;1.92;;;1.30;;
8353;SDS011;4656;48.090;11.498;2023-05-10T01:53:14;1.20;;;1.10;;
8353;SDS011;4656;48.090;11.498;2023-05-10T01:55:16;2.47;;;1.30;;
8353;SDS011;4656;48.090;11.498;2023-05-10T01:57:20;1.10;;;1.10;;
8353;SDS011;4656;48.090;11.498;2023-05-10T01:59:23;1.38;;;1.27;;
8353;SDS011;4656;48.090;11.498;2023-05-10T02:01:29;2.38;;;1.40;;
8353;SDS011;4656;48.090;11.498;2023-05-10T02:03:31;1.90;;;1.30;;
8353;SDS011;4656;48.090;11.498;2023-05-10T02:05:35;1.80;;;1.40;;
8353;SDS011;4656;48.090;11.498;2023-05-10T02:07:38;1.42;;;1.30;;
8353;SDS011;4656;48.090;11.498;2023-05-10T02:09:41;1.52;;;1.33;;
8353;SDS011;4656;48.090;11.498;2023-05-10T02:11:44;1.45;;;1.30;;
8353;SDS011;4656;48.090;11.498;2023-05-10T02:13:47;1.58;;;1.27;;
8353;SDS011;4656;48.090;11.498;2023-05-10T02:15:49;1.80;;;1.40;;
8353;SDS011;4656;48.090;11.498;2023-05-10T02:17:54;1.77;;;1.45;;
8353;SDS011;4656;48.090;11.498;2023-05-10T02:19:56;1.70;;;1.48;;
8353;SDS011;4656;48.090;11.498;2023-05-10T02:22:00;2.85;;;1.48;;
8353;SDS011;4656;48.090;11.498;2023-05-10T02:24:03;1.40;;;1.30;;
8353;SDS011;4656;48.090;11.498;2023-05-10T02:26:06;1.77;;;1.42;;
8353;SDS011;4656;48.090;11.498;2023-05-10T02:28:09;1.37;;;1.27;;
8353;SDS011;4656;48.090;11.498;2023-05-10T02:30:12;2.70;;;1.40;;
8353;SDS011;4656;48.090;11.498;2023-05-10T02:32:15;1.50;;;1.40;;
8353;SDS011;4656;48.090;11.498;2023-05-10T02:34:18;2.20;;;1.50;;
8353;SDS011;4656;48.090;11.498;2023-05-10T02:36:21;1.73;;;1.30;;
8353;SDS011;4656;48.090;11.498;2023-05-10T02:38:25;1.70;;;1.50;;
8353;SDS011;4656;48.090;11.498;2023-05-10T02:40:27;2.20;;;1.50;;
8353;SDS011;4656;48.090;11.498;2023-05-10T02:42:31;1.37;;;1.27;;
8353;SDS011;4656;48.090;11.498;2023-05-10T02:44:34;2.33;;;1.40;;
8353;SDS011;4656;48.090;11.498;2023-05-10T02:46:37;1.70;;;1.30;;
8353;SDS011;4656;48.090;11.498;2023-05-10T02:48:40;1.27;;;1.17;;
8353;SDS011;4656;48.090;11.498;2023-05-10T02:50:42;1.10;;;1.10;;
8353;SDS011;4656;48.090;11.498;2023-05-10T02:52:46;1.23;;;1.13;;
8353;SDS011;4656;48.090;11.498;2023-05-10T02:54:50;2.38;;;1.23;;
8353;SDS011;4656;48.090;11.498;2023-05-10T02:56:56;1.50;;;1.40;;
8353;SDS011;4656;48.090;11.498;2023-05-10T02:58:59;1.27;;;1.17;;
8353;SDS011;4656;48.090;11.498;2023-05-10T03:01:01;1.90;;;1.20;;
8353;SDS011;4656;48.090;11.498;2023-05-10T03:03:04;1.90;;;1.30;;
8353;SDS011;4656;48.090;11.498;2023-05-10T03:05:06;1.77;;;1.23;;
8353;SDS011;4656;48.090;11.498;2023-05-10T03:07:11;1.05;;;1.05;;
8353;SDS011;4656;48.090;11.498;2023-05-10T03:09:14;1.20;;;1.10;;
8353;SDS011;4656;48.090;11.498;2023-05-10T03:11:28;1.30;;;1.20;;
8353;SDS011;4656;48.090;11.498;2023-05-10T03:13:35;1.10;;;1.00;;
8353;SDS011;4656;48.090;11.498;2023-05-10T03:15:42;2.78;;;1.02;;
8353;SDS011;4656;48.090;11.498;2023-05-10T03:17:52;1.20;;;1.00;;
8353;SDS011;4656;48.090;11.498;2023-05-10T03:19:56;1.67;;;1.20;;
8353;SDS011;4656;48.090;11.498;2023-05-10T03:21:59;1.80;;;1.27;;
8353;SDS011;4656;48.090;11.498;2023-05-10T03:24:06;2.80;;;1.05;;
8353;SDS011;4656;48.090;11.498;2023-05-10T03:26:09;0.90;;;0.90;;
8353;SDS011;4656;48.090;11.498;2023-05-10T03:28:14;1.20;;;1.02;;
8353;SDS011;4656;48.090;11.498;2023-05-10T03:30:16;2.13;;;1.17;;
8353;SDS011;4656;48.090;11.498;2023-05-10T03:32:18;1.00;;;1.00;;
8353;SDS011;4656;48.090;11.498;2023-05-10T03:34:23;0.70;;;0.70;;
8353;SDS011;4656;48.090;11.498;2023-05-10T03:36:25;2.90;;;0.93;;
8353;SDS011;4656;48.090;11.498;2023-05-10T03:38:27;1.50;;;0.82;;
8353;SDS011;4656;48.090;11.498;2023-05-10T03:40:29;0.85;;;0.73;;
8353;SDS011;4656;48.090;11.498;2023-05-10T03:42:32;0.80;;;0.80;;
8353;SDS011;4656;48.090;11.498;2023-05-10T03:44:35;1.55;;;0.73;;
8353;SDS011;4656;48.090;11.498;2023-05-10T03:46:38;0.68;;;0.68;;
8353;SDS011;4656;48.090;11.498;2023-05-10T03:48:40;0.80;;;0.80;;
8353;SDS011;4656;48.090;11.498;2023-05-10T03:50:42;0.65;;;0.65;;
8353;SDS011;4656;48.090;11.498;2023-05-10T03:52:44;2.55;;;0.90;;
8353;SDS011;4656;48.090;11.498;2023-05-10T03:54:47;2.15;;;0.95;;
8353;SDS011;4656;48.090;11.498;2023-05-10T03:56:49;0.70;;;0.70;;
8353;SDS011;4656;48.090;11.498;2023-05-10T03:58:51;0.80;;;0.80;;
8353;SDS011;4656;48.090;11.498;2023-05-10T04:00:54;1.10;;;1.00;;
8353;SDS011;4656;48.090;11.498;2023-05-10T04:02:56;0.90;;;0.80;;
8353;SDS011;4656;48.090;11.498;2023-05-10T04:04:59;0.90;;;0.77;;
8353;SDS011;4656;48.090;11.498;2023-05-10T04:07:01;0.63;;;0.63;;
8353;SDS011;4656;48.090;11.498;2023-05-10T04:09:06;0.70;;;0.70;;
8353;SDS011;4656;48.090;11.498;2023-05-10T04:11:10;2.30;;;1.10;;
8353;SDS011;4656;48.090;11.498;2023-05-10T04:13:13;2.40;;;0.80;;
8353;SDS011;4656;48.090;11.498;2023-05-10T04:15:16;1.23;;;0.70;;
8353;SDS011;4656;48.090;11.498;2023-05-10T04:17:19;0.80;;;0.80;;
8353;SDS011;4656;48.090;11.498;2023-05-10T04:19:21;0.70;;;0.60;;
8353;SDS011;4656;48.090;11.498;2023-05-10T04:21:26;0.95;;;0.88;;
8353;SDS011;4656;48.090;11.498;2023-05-10T04:23:28;0.90;;;0.80;;
8353;SDS011;4656;48.090;11.498;2023-05-10T04:25:30;1.85;;;0.80;;
8353;SDS011;4656;48.090;11.498;2023-05-10T04:27:35;0.88;;;0.88;;
8353;SDS011;4656;48.090;11.498;2023-05-10T04:29:37;1.08;;;0.98;;
8353;SDS011;4656;48.090;11.498;2023-05-10T04:31:40;2.13;;;0.80;;
8353;SDS011;4656;48.090;11.498;2023-05-10T04:33:43;0.95;;;0.90;;
8353;SDS011;4656;48.090;11.498;2023-05-10T04:35:51;0.75;;;0.60;;
8353;SDS011;4656;48.090;11.498;2023-05-10T04:37:53;0.70;;;0.70;;
8353;SDS011;4656;48.090;11.498;2023-05-10T04:39:55;1.30;;;0.63;;
8353;SDS011;4656;48.090;11.498;2023-05-10T04:41:57;0.60;;;0.60;;
8353;SDS011;4656;48.090;11.498;2023-05-10T04:43:59;0.98;;;0.90;;
8353;SDS011;4656;48.090;11.498;2023-05-10T04:46:01;0.60;;;0.60;;
8353;SDS011;4656;48.090;11.498;2023-05-10T04:48:04;0.70;;;0.70;;
8353;SDS011;4656;48.090;11.498;2023-05-10T04:50:08;1.30;;;0.70;;
8353;SDS011;4656;48.090;11.498;2023-05-10T04:52:10;0.50;;;0.50;;
8353;SDS011;4656;48.090;11.498;2023-05-10T04:54:12;1.38;;;0.68;;
8353;SDS011;4656;48.090;11.498;2023-05-10T04:56:15;0.52;;;0.52;;
8353;SDS011;4656;48.090;11.498;2023-05-10T04:58:17;0.70;;;0.60;;
8353;SDS011;4656;48.090;11.498;2023-05-10T05:00:19;0.57;;;0.57;;
8353;SDS011;4656;48.090;11.498;2023-05-10T05:02:21;0.60;;;0.60;;
8353;SDS011;4656;48.090;11.498;2023-05-10T05:04:23;0.60;;;0.60;;
8353;SDS011;4656;48.090;11.498;2023-05-10T05:06:27;2.50;;;0.90;;
8353;SDS011;4656;48.090;11.498;2023-05-10T05:08:29;1.20;;;0.90;;
8353;SDS011;4656;48.090;11.498;2023-05-10T05:10:31;1.60;;;0.70;;
8353;SDS011;4656;48.090;11.498;2023-05-10T05:12:33;0.70;;;0.70;;
8353;SDS011;4656;48.090;11.498;2023-05-10T05:14:35;0.90;;;0.90;;
8353;SDS011;4656;48.090;11.498;2023-05-10T05:16:37;1.60;;;0.80;;
8353;SDS011;4656;48.090;11.498;2023-05-10T05:18:39;4.13;;;1.07;;
8353;SDS011;4656;48.090;11.498;2023-05-10T05:20:41;0.85;;;0.85;;
8353;SDS011;4656;48.090;11.498;2023-05-10T05:22:45;1.65;;;0.98;;
8353;SDS011;4656;48.090;11.498;2023-05-10T05:24:47;1.55;;;0.90;;
8353;SDS011;4656;48.090;11.498;2023-05-10T05:26:49;1.13;;;1.02;;
8353;SDS011;4656;48.090;11.498;2023-05-10T05:28:54;4.72;;;1.48;;
8353;SDS011;4656;48.090;11.498;2023-05-10T05:30:56;1.25;;;0.85;;
8353;SDS011;4656;48.090;11.498;2023-05-10T05:33:00;2.25;;;0.80;;
8353;SDS011;4656;48.090;11.498;2023-05-10T05:35:02;2.35;;;0.90;;
8353;SDS011;4656;48.090;11.498;2023-05-10T05:37:04;1.15;;;0.60;;
8353;SDS011;4656;48.090;11.498;2023-05-10T05:39:07;0.57;;;0.57;;
8353;SDS011;4656;48.090;11.498;2023-05-10T05:41:09;2.42;;;1.05;;
8353;SDS011;4656;48.090;11.498;2023-05-10T05:43:12;2.83;;;0.93;;
8353;SDS011;4656;48.090;11.498;2023-05-10T05:45:14;0.63;;;0.63;;
8353;SDS011;4656;48.090;11.498;2023-05-10T05:47:16;0.88;;;0.88;;
8353;SDS011;4656;48.090;11.498;2023-05-10T05:49:19;2.67;;;1.03;;
8353;SDS011;4656;48.090;11.498;2023-05-10T05:51:21;1.27;;;1.10;;
8353;SDS011;4656;48.090;11.498;2023-05-10T05:53:23;2.23;;;0.80;;
8353;SDS011;4656;48.090;11.498;2023-05-10T05:55:27;0.80;;;0.80;;
8353;SDS011;4656;48.090;11.498;2023-05-10T05:57:31;1.23;;;0.90;;
8353;SDS011;4656;48.090;11.498;2023-05-10T05:59:33;2.97;;;0.80;;
8353;SDS011;4656;48.090;11.498;2023-05-10T06:01:35;0.80;;;0.80;;
8353;SDS011;4656;48.090;11.498;2023-05-10T06:03:37;1.20;;;0.77;;
8353;SDS011;4656;48.090;11.498;2023-05-10T06:05:40;2.17;;;0.77;;
8353;SDS011;4656;48.090;11.498;2023-05-10T06:07:42;1.55;;;0.75;;
8353;SDS011;4656;48.090;11.498;2023-05-10T06:09:44;1.60;;;0.90;;
8353;SDS011;4656;48.090;11.498;2023-05-10T06:11:47;1.60;;;0.80;;
8353;SDS011;4656;48.090;11.498;2023-05-10T06:13:52;1.98;;;0.90;;
8353;SDS011;4656;48.090;11.498;2023-05-10T06:15:54;0.70;;;0.70;;
8353;SDS011;4656;48.090;11.498;2023-05-10T06:17:56;1.10;;;1.00;;
8353;SDS011;4656;48.090;11.498;2023-05-10T06:19:58;1.90;;;1.10;;
8353;SDS011;4656;48.090;11.498;2023-05-10T06:22:00;1.80;;;1.02;;
8353;SDS011;4656;48.090;11.498;2023-05-10T06:24:02;1.10;;;1.00;;
8353;SDS011;4656;48.090;11.498;2023-05-10T06:26:05;2.03;;;1.15;;
8353;SDS011;4656;48.090;11.498;2023-05-10T06:28:11;1.10;;;1.00;;
8353;SDS011;4656;48.090;11.498;2023-05-10T06:30:16;1.60;;;1.10;;
8353;SDS011;4656;48.090;11.498;2023-05-10T06:32:18;1.08;;;1.00;;
8353;SDS011;4656;48.090;11.498;2023-05-10T06:34:20;1.07;;;0.97;;
8353;SDS011;4656;48.090;11.498;2023-05-10T06:36:22;1.92;;;0.98;;
8353;SDS011;4656;48.090;11.498;2023-05-10T06:38:26;1.50;;;1.20;;
8353;SDS011;4656;48.090;11.498;2023-05-10T06:40:28;1.40;;;1.10;;
8353;SDS011;4656;48.090;11.498;2023-05-10T06:42:30;1.33;;;1.10;;
8353;SDS011;4656;48.090;11.498;2023-05-10T06:44:34;1.48;;;1.38;;
8353;SDS011;4656;48.090;11.498;2023-05-10T06:46:36;1.27;;;1.00;;
8353;SDS011;4656;48.090;11.498;2023-05-10T06:48:38;0.93;;;0.80;;
8353;SDS011;4656;48.090;11.498;2023-05-10T06:50:40;1.30;;;0.90;;
8353;SDS011;4656;48.090;11.498;2023-05-10T06:52:42;1.17;;;0.82;;
8353;SDS011;4656;48.090;11.498;2023-05-10T06:54:44;1.25;;;0.90;;
8353;SDS011;4656;48.090;11.498;2023-05-10T06:56:46;1.10;;;1.00;;
8353;SDS011;4656;48.090;11.498;2023-05-10T06:58:48;0.90;;;0.90;;
8353;SDS011;4656;48.090;11.498;2023-05-10T07:00:52;1.80;;;0.93;;
8353;SDS011;4656;48.090;11.498;2023-05-10T07:02:54;1.20;;;0.95;;
8353;SDS011;4656;48.090;11.498;2023-05-10T07:04:56;0.95;;;0.93;;
8353;SDS011;4656;48.090;11.498;2023-05-10T07:06:58;0.80;;;0.80;;
8353;SDS011;4656;48.090;11.498;2023-05-10T07:09:01;1.00;;;1.00;;
8353;SDS011;4656;48.090;11.498;2023-05-10T07:11:04;1.10;;;1.00;;
8353;SDS011;4656;48.090;11.498;2023-05-10T07:13:07;2.42;;;1.00;;
8353;SDS011;4656;48.090;11.498;2023-05-10T07:15:10;1.77;;;0.80;;
8353;SDS011;4656;48.090;11.498;2023-05-10T07:17:14;1.50;;;0.90;;
8353;SDS011;4656;48.090;11.498;2023-05-10T07:19:16;0.80;;;0.80;;
8353;SDS011;4656;48.090;11.498;2023-05-10T07:21:18;1.80;;;0.75;;
8353;SDS011;4656;48.090;11.498;2023-05-10T07:23:20;3.17;;;0.95;;
8353;SDS011;4656;48.090;11.498;2023-05-10T07:25:23;0.85;;;0.82;;
8353;SDS011;4656;48.090;11.498;2023-05-10T07:27:25;1.48;;;0.90;;
8353;SDS011;4656;48.090;11.498;2023-05-10T07:29:27;0.80;;;0.80;;
8353;SDS011;4656;48.090;11.498;2023-05-10T07:31:29;1.02;;;1.00;;
8353;SDS011;4656;48.090;11.498;2023-05-10T07:33:33;1.23;;;0.97;;
8353;SDS011;4656;48.090;11.498;2023-05-10T07:35:35;0.85;;;0.80;;
8353;SDS011;4656;48.090;11.498;2023-05-10T07:37:37;1.80;;;0.90;;
8353;SDS011;4656;48.090;11.498;2023-05-10T07:39:39;1.40;;;0.90;;
8353;SDS011;4656;48.090;11.498;2023-05-10T07:41:41;1.48;;;1.10;;
8353;SDS011;4656;48.090;11.498;2023-05-10T07:43:43;1.10;;;0.88;;
8353;SDS011;4656;48.090;11.498;2023-05-10T07:45:46;1.63;;;1.00;;
8353;SDS011;4656;48.090;11.498;2023-05-10T07:47:48;1.20;;;0.70;;
8353;SDS011;4656;48.090;11.498;2023-05-10T07:49:51;1.80;;;0.80;;
8353;SDS011;4656;48.090;11.498;2023-05-10T07:51:53;1.27;;;0.80;;
8353;SDS011;4656;48.090;11.498;2023-05-10T07:53:57;0.60;;;0.60;;
8353;SDS011;4656;48.090;11.498;2023-05-10T07:56:19;1.00;;;0.82;;
8353;SDS011;4656;48.090;11.498;2023-05-10T07:58:21;0.55;;;0.55;;
8353;SDS011;4656;48.090;11.498;2023-05-10T08:00:23;0.80;;;0.80;;
8353;SDS011;4656;48.090;11.498;2023-05-10T08:02:26;1.40;;;0.77;;
8353;SDS011;4656;48.090;11.498;2023-05-10T08:04:28;0.68;;;0.68;;
8353;SDS011;4656;48.090;11.498;2023-05-10T08:06:31;2.67;;;0.70;;
8353;SDS011;4656;48.090;11.498;2023-05-10T08:08:33;1.10;;;1.00;;
8353;SDS011;4656;48.090;11.498;2023-05-10T08:10:35;0.70;;;0.70;;
8353;SDS011;4656;48.090;11.498;2023-05-10T08:12:38;0.75;;;0.60;;
8353;SDS011;4656;48.090;11.498;2023-05-10T08:14:40;1.08;;;0.60;;
8353;SDS011;4656;48.090;11.498;2023-05-10T08:16:42;0.60;;;0.60;;
8353;SDS011;4656;48.090;11.498;2023-05-10T08:18:44;0.80;;;0.70;;
8353;SDS011;4656;48.090;11.498;2023-05-10T08:20:47;0.75;;;0.63;;
8353;SDS011;4656;48.090;11.498;2023-05-10T08:22:50;1.15;;;0.70;;
8353;SDS011;4656;48.090;11.498;2023-05-10T08:24:53;0.70;;;0.70;;
8353;SDS011;4656;48.090;11.498;2023-05-10T08:26:55;1.00;;;0.70;;
8353;SDS011;4656;48.090;11.498;2023-05-10T08:28:57;1.45;;;0.98;;
8353;SDS011;4656;48.090;11.498;2023-05-10T08:31:02;2.25;;;0.68;;
8353;SDS011;4656;48.090;11.498;2023-05-10T08:33:04;0.60;;;0.60;;
8353;SDS011;4656;48.090;11.498;2023-05-10T08:35:06;1.10;;;1.00;;
8353;SDS011;4656;48.090;11.498;2023-05-10T08:37:08;0.70;;;0.70;;
8353;SDS011;4656;48.090;11.498;2023-05-10T08:39:14;0.60;;;0.60;;
8353;SDS011;4656;48.090;11.498;2023-05-10T08:41:16;1.40;;;0.70;;
8353;SDS011;4656;48.090;11.498;2023-05-10T08:43:19;0.93;;;0.55;;
8353;SDS011;4656;48.090;11.498;2023-05-10T08:45:21;1.58;;;0.60;;
8353;SDS011;4656;48.090;11.498;2023-05-10T08:47:24;0.75;;;0.60;;
8353;SDS011;4656;48.090;11.498;2023-05-10T08:49:26;1.00;;;0.75;;
8353;SDS011;4656;48.090;11.498;2023-05-10T08:51:29;0.57;;;0.57;;
8353;SDS011;4656;48.090;11.498;2023-05-10T08:53:33;1.10;;;0.60;;
8353;SDS011;4656;48.090;11.498;2023-05-10T08:55:38;3.90;;;0.50;;
8353;SDS011;4656;48.090;11.498;2023-05-10T08:57:42;0.40;;;0.40;;
8353;SDS011;4656;48.090;11.498;2023-05-10T08:59:50;0.80;;;0.50;;
8353;SDS011;4656;48.090;11.498;2023-05-10T09:01:52;0.50;;;0.50;;
8353;SDS011;4656;48.090;11.498;2023-05-10T09:03:55;0.65;;;0.60;;
8353;SDS011;4656;48.090;11.498;2023-05-10T09:05:58;1.40;;;0.60;;
8353;SDS011;4656;48.090;11.498;2023-05-10T09:08:00;0.40;;;0.40;;
8353;SDS011;4656;48.090;11.498;2023-05-10T09:10:05;0.40;;;0.40;;
8353;SDS011;4656;48.090;11.498;2023-05-10T09:12:09;1.30;;;0.50;;
8353;SDS011;4656;48.090;11.498;2023-05-10T09:14:12;1.70;;;0.80;;
8353;SDS011;4656;48.090;11.498;2023-05-10T09:16:14;0.65;;;0.65;;
8353;SDS011;4656;48.090;11.498;2023-05-10T09:18:16;0.57;;;0.50;;
8353;SDS011;4656;48.090;11.498;2023-05-10T09:20:18;1.10;;;0.60;;
8353;SDS011;4656;48.090;11.498;2023-05-10T09:22:21;1.50;;;0.50;;
8353;SDS011;4656;48.090;11.498;2023-05-10T09:24:25;0.60;;;0.60;;
8353;SDS011;4656;48.090;11.498;2023-05-10T09:26:27;0.80;;;0.73;;
8353;SDS011;4656;48.090;11.498;2023-05-10T09:28:32;0.90;;;0.45;;
8353;SDS011;4656;48.090;11.498;2023-05-10T09:30:37;0.75;;;0.70;;
8353;SDS011;4656;48.090;11.498;2023-05-10T09:32:41;5.95;;;4.32;;
8353;SDS011;4656;48.090;11.498;2023-05-10T09:34:44;1.33;;;0.70;;
8353;SDS011;4656;48.090;11.498;2023-05-10T09:36:55;3.10;;;0.85;;
8353;SDS011;4656;48.090;11.498;2023-05-10T09:39:00;1.15;;;0.93;;
8353;SDS011;4656;48.090;11.498;2023-05-10T09:41:03;1.10;;;0.60;;
8353;SDS011;4656;48.090;11.498;2023-05-10T09:43:06;0.80;;;0.65;;
8353;SDS011;4656;48.090;11.498;2023-05-10T09:45:10;1.40;;;0.80;;
8353;SDS011;4656;48.090;11.498;2023-05-10T09:47:14;1.90;;;0.50;;
8353;SDS011;4656;48.090;11.498;2023-05-10T09:49:18;0.60;;;0.60;;
8353;SDS011;4656;48.090;11.498;2023-05-10T09:51:23;0.70;;;0.50;;
8353;SDS011;4656;48.090;11.498;2023-05-10T09:53:26;0.70;;;0.70;;
8353;SDS011;4656;48.090;11.498;2023-05-10T09:55:37;0.70;;;0.70;;
8353;SDS011;4656;48.090;11.498;2023-05-10T09:57:40;1.30;;;0.63;;
8353;SDS011;4656;48.090;11.498;2023-05-10T09:59:42;1.20;;;0.70;;
8353;SDS011;4656;48.090;11.498;2023-05-10T10:01:50;0.67;;;0.67;;
8353;SDS011;4656;48.090;11.498;2023-05-10T10:03:52;0.80;;;0.70;;
8353;SDS011;4656;48.090;11.498;2023-05-10T10:05:54;2.28;;;0.65;;
8353;SDS011;4656;48.090;11.498;2023-05-10T10:07:57;0.77;;;0.70;;
8353;SDS011;4656;48.090;11.498;2023-05-10T10:09:59;1.92;;;0.75;;
8353;SDS011;4656;48.090;11.498;2023-05-10T10:12:02;0.70;;;0.70;;
8353;SDS011;4656;48.090;11.498;2023-05-10T10:14:05;0.60;;;0.60;;
8353;SDS011;4656;48.090;11.498;2023-05-10T10:16:07;0.68;;;0.63;;
8353;SDS011;4656;48.090;11.498;2023-05-10T10:18:13;0.50;;;0.50;;
8353;SDS011;4656;48.090;11.498;2023-05-10T10:20:16;1.33;;;1.10;;
8353;SDS011;4656;48.090;11.498;2023-05-10T10:22:18;0.60;;;0.60;;
8353;SDS011;4656;48.090;11.498;2023-05-10T10:24:20;1.35;;;0.75;;
8353;SDS011;4656;48.090;11.498;2023-05-10T10:26:23;1.23;;;0.60;;
8353;SDS011;4656;48.090;11.498;2023-05-10T10:28:26;0.85;;;0.60;;
8353;SDS011;4656;48.090;11.498;2023-05-10T10:30:35;1.00;;;0.60;;
8353;SDS011;4656;48.090;11.498;2023-05-10T10:32:42;1.10;;;0.60;;
8353;SDS011;4656;48.090;11.498;2023-05-10T10:34:50;1.20;;;0.55;;
8353;SDS011;4656;48.090;11.498;2023-05-10T10:36:52;0.67;;;0.67;;
8353;SDS011;4656;48.090;11.498;2023-05-10T10:38:56;0.50;;;0.50;;
8353;SDS011;4656;48.090;11.498;2023-05-10T10:41:09;1.00;;;0.50;;
8353;SDS011;4656;48.090;11.498;2023-05-10T10:43:21;0.70;;;0.70;;
8353;SDS011;4656;48.090;11.498;2023-05-10T10:45:24;2.50;;;0.80;;
8353;SDS011;4656;48.090;11.498;2023-05-10T10:47:28;1.17;;;0.70;;
8353;SDS011;4656;48.090;11.498;2023-05-10T10:49:33;0.80;;;0.60;;
8353;SDS011;4656;48.090;11.498;2023-05-10T10:51:38;1.00;;;0.85;;
8353;SDS011;4656;48.090;11.498;2023-05-10T10:53:40;1.40;;;0.60;;
8353;SDS011;4656;48.090;11.498;2023-05-10T10:55:46;4.72;;;0.90;;
8353;SDS011;4656;48.090;11.498;2023-05-10T10:57:49;2.58;;;1.10;;
8353;SDS011;4656;48.090;11.498;2023-05-10T10:59:51;4.60;;;1.30;;
8353;SDS011;4656;48.090;11.498;2023-05-10T11:01:53;1.63;;;1.30;;
8353;SDS011;4656;48.090;11.498;2023-05-10T11:06:18;3.20;;;1.02;;
8353;SDS011;4656;48.090;11.498;2023-05-10T11:08:39;2.40;;;1.23;;
8353;SDS011;4656;48.090;11.498;2023-05-10T11:10:53;5.00;;;1.60;;
8353;SDS011;4656;48.090;11.498;2023-05-10T11:13:04;1.75;;;1.55;;
8353;SDS011;4656;48.090;11.498;2023-05-10T11:15:08;4.70;;;2.33;;
8353;SDS011;4656;48.090;11.498;2023-05-10T11:17:23;2.83;;;2.10;;
8353;SDS011;4656;48.090;11.498;2023-05-10T11:19:27;4.93;;;2.95;;
8353;SDS011;4656;48.090;11.498;2023-05-10T11:21:29;5.00;;;2.70;;
8353;SDS011;4656;48.090;11.498;2023-05-10T11:23:47;8.60;;;2.50;;
8353;SDS011;4656;48.090;11.498;2023-05-10T11:25:50;6.90;;;2.20;;
8353;SDS011;4656;48.090;11.498;2023-05-10T11:27:52;14.80;;;2.22;;
8353;SDS011;4656;48.090;11.498;2023-05-10T11:29:54;0.10;;;0.10;;
8353;SDS011;4656;48.090;11.498;2023-05-10T11:31:57;0.60;;;0.60;;
8353;SDS011;4656;48.090;11.498;2023-05-10T11:34:07;0.20;;;0.20;;
8353;SDS011;4656;48.090;11.498;2023-05-10T11:36:10;0.10;;;0.10;;
8353;SDS011;4656;48.090;11.498;2023-05-10T11:38:12;0.20;;;0.20;;
8353;SDS011;4656;48.090;11.498;2023-05-10T11:40:18;0.20;;;0.20;;
8353;SDS011;4656;48.090;11.498;2023-05-10T11:42:24;0.13;;;0.13;;
8353;SDS011;4656;48.090;11.498;2023-05-10T11:44:30;0.10;;;0.10;;
8353;SDS011;4656;48.090;11.498;2023-05-10T11:46:32;0.20;;;0.20;;
8353;SDS011;4656;48.090;11.498;2023-05-10T11:48:34;0.20;;;0.20;;
8353;SDS011;4656;48.090;11.498;2023-05-10T11:50:36;0.10;;;0.10;;
8353;SDS011;4656;48.090;11.498;2023-05-10T11:52:39;0.30;;;0.30;;
8353;SDS011;4656;48.090;11.498;2023-05-10T11:54:44;0.17;;;0.17;;
8353;SDS011;4656;48.090;11.498;2023-05-10T11:56:48;0.10;;;0.10;;
8353;SDS011;4656;48.090;11.498;2023-05-10T11:58:53;0.13;;;0.13;;
8353;SDS011;4656;48.090;11.498;2023-05-10T12:00:55;0.10;;;0.10;;
8353;SDS011;4656;48.090;11.498;2023-05-10T12:02:57;0.20;;;0.20;;
8353;SDS011;4656;48.090;11.498;2023-05-10T12:05:00;0.10;;;0.10;;
8353;SDS011;4656;48.090;11.498;2023-05-10T12:07:04;0.20;;;0.20;;
8353;SDS011;4656;48.090;11.498;2023-05-10T12:09:06;0.10;;;0.10;;
8353;SDS011;4656;48.090;11.498;2023-05-10T12:11:09;0.10;;;0.10;;
8353;SDS011;4656;48.090;11.498;2023-05-10T12:13:13;0.90;;;0.50;;
8353;SDS011;4656;48.090;11.498;2023-05-10T12:15:17;0.10;;;0.10;;
8353;SDS011;4656;48.090;11.498;2023-05-10T12:17:21;0.20;;;0.20;;
8353;SDS011;4656;48.090;11.498;2023-05-10T12:19:26;0.20;;;0.20;;
8353;SDS011;4656;48.090;11.498;2023-05-10T12:21:28;0.43;;;0.43;;
8353;SDS011;4656;48.090;11.498;2023-05-10T12:23:31;0.10;;;0.10;;
8353;SDS011;4656;48.090;11.498;2023-05-10T12:25:34;0.80;;;0.30;;
8353;SDS011;4656;48.090;11.498;2023-05-10T12:27:36;0.60;;;0.60;;
8353;SDS011;4656;48.090;11.498;2023-05-10T12:29:42;0.20;;;0.20;;
8353;SDS011;4656;48.090;11.498;2023-05-10T12:31:54;0.28;;;0.28;;
8353;SDS011;4656;48.090;11.498;2023-05-10T12:33:57;0.20;;;0.20;;
8353;SDS011;4656;48.090;11.498;2023-05-10T12:35:59;0.20;;;0.20;;
8353;SDS011;4656;48.090;11.498;2023-05-10T12:38:01;0.30;;;0.30;;
8353;SDS011;4656;48.090;11.498;2023-05-10T12:40:23;0.30;;;0.30;;